sensor_id;sensor_type;location;lat;lon;timestamp;P1;durP1;ratioP1;P2;durP2;ratioP2
8556;SDS011;4316;53.840;10.762;2022-10-13T00:01:59;13.13;;;2.93;;
8556;SDS011;4316;53.840;10.762;2022-10-13T00:04:25;9.13;;;2.73;;
8556;SDS011;4316;53.840;10.762;2022-10-13T00:06:51;6.77;;;2.97;;
8556;SDS011;4316;53.840;10.762;2022-10-13T00:09:20;11.00;;;3.00;;
8556;SDS011;4316;53.840;10.762;2022-10-13T00:11:45;9.57;;;3.03;;
8556;SDS011;4316;53.840;10.762;2022-10-13T00:14:11;18.07;;;3.50;;
8556;SDS011;4316;53.840;10.762;2022-10-13T00:16:37;8.03;;;2.93;;
8556;SDS011;4316;53.840;10.762;2022-10-13T00:19:03;10.80;;;3.67;;
8556;SDS011;4316;53.840;10.762;2022-10-13T00:21:29;8.30;;;3.97;;
8556;SDS011;4316;53.840;10.762;2022-10-13T00:23:55;7.70;;;4.20;;
8556;SDS011;4316;53.840;10.762;2022-10-13T00:26:23;10.90;;;4.20;;
8556;SDS011;4316;53.840;10.762;2022-10-13T00:28:49;9.67;;;3.70;;
8556;SDS011;4316;53.840;10.762;2022-10-13T00:31:16;8.40;;;3.37;;
8556;SDS011;4316;53.840;10.762;2022-10-13T00:33:44;9.00;;;2.80;;
8556;SDS011;4316;53.840;10.762;2022-10-13T00:36:11;9.63;;;3.03;;
8556;SDS011;4316;53.840;10.762;2022-10-13T00:38:37;8.73;;;3.40;;
8556;SDS011;4316;53.840;10.762;2022-10-13T00:41:02;4.83;;;2.87;;
8556;SDS011;4316;53.840;10.762;2022-10-13T00:46:20;10.07;;;3.53;;
8556;SDS011;4316;53.840;10.762;2022-10-13T00:48:54;8.03;;;4.00;;
8556;SDS011;4316;53.840;10.762;2022-10-13T00:51:23;12.00;;;3.67;;
8556;SDS011;4316;53.840;10.762;2022-10-13T00:53:54;5.27;;;3.70;;
8556;SDS011;4316;53.840;10.762;2022-10-13T00:56:21;14.73;;;4.33;;
8556;SDS011;4316;53.840;10.762;2022-10-13T00:58:49;14.67;;;4.23;;
8556;SDS011;4316;53.840;10.762;2022-10-13T01:01:17;14.87;;;5.47;;
8556;SDS011;4316;53.840;10.762;2022-10-13T01:03:43;11.93;;;4.67;;
8556;SDS011;4316;53.840;10.762;2022-10-13T01:06:08;7.80;;;4.03;;
8556;SDS011;4316;53.840;10.762;2022-10-13T01:08:36;8.43;;;4.63;;
8556;SDS011;4316;53.840;10.762;2022-10-13T01:30:51;11.73;;;3.10;;
8556;SDS011;4316;53.840;10.762;2022-10-13T01:33:34;8.77;;;2.87;;
8556;SDS011;4316;53.840;10.762;2022-10-13T01:39:02;7.73;;;3.73;;
8556;SDS011;4316;53.840;10.762;2022-10-13T01:41:50;11.47;;;2.90;;
8556;SDS011;4316;53.840;10.762;2022-10-13T01:44:30;9.90;;;3.37;;
8556;SDS011;4316;53.840;10.762;2022-10-13T01:46:59;15.47;;;3.30;;
8556;SDS011;4316;53.840;10.762;2022-10-13T01:49:27;12.33;;;3.00;;
8556;SDS011;4316;53.840;10.762;2022-10-13T01:51:58;6.10;;;2.50;;
8556;SDS011;4316;53.840;10.762;2022-10-13T01:54:27;10.53;;;3.00;;
8556;SDS011;4316;53.840;10.762;2022-10-13T01:56:54;11.80;;;2.47;;
8556;SDS011;4316;53.840;10.762;2022-10-13T01:59:20;13.20;;;2.83;;
8556;SDS011;4316;53.840;10.762;2022-10-13T02:07:09;7.27;;;2.87;;
8556;SDS011;4316;53.840;10.762;2022-10-13T02:12:35;8.83;;;2.47;;
8556;SDS011;4316;53.840;10.762;2022-10-13T02:15:06;10.00;;;2.80;;
8556;SDS011;4316;53.840;10.762;2022-10-13T02:17:36;16.53;;;2.83;;
8556;SDS011;4316;53.840;10.762;2022-10-13T02:20:04;8.13;;;2.40;;
8556;SDS011;4316;53.840;10.762;2022-10-13T02:22:35;11.20;;;2.60;;
8556;SDS011;4316;53.840;10.762;2022-10-13T02:25:06;14.83;;;2.80;;
8556;SDS011;4316;53.840;10.762;2022-10-13T02:27:32;9.27;;;2.50;;
8556;SDS011;4316;53.840;10.762;2022-10-13T02:29:58;9.53;;;3.30;;
8556;SDS011;4316;53.840;10.762;2022-10-13T02:32:27;13.23;;;3.07;;
8556;SDS011;4316;53.840;10.762;2022-10-13T02:34:53;11.97;;;2.47;;
8556;SDS011;4316;53.840;10.762;2022-10-13T02:37:19;8.23;;;2.57;;
8556;SDS011;4316;53.840;10.762;2022-10-13T02:39:45;8.47;;;2.70;;
8556;SDS011;4316;53.840;10.762;2022-10-13T02:42:12;5.90;;;1.97;;
8556;SDS011;4316;53.840;10.762;2022-10-13T02:44:38;12.87;;;3.00;;
8556;SDS011;4316;53.840;10.762;2022-10-13T02:47:04;6.53;;;2.77;;
8556;SDS011;4316;53.840;10.762;2022-10-13T02:49:30;9.57;;;2.90;;
8556;SDS011;4316;53.840;10.762;2022-10-13T02:51:55;7.67;;;2.53;;
8556;SDS011;4316;53.840;10.762;2022-10-13T02:54:21;12.10;;;2.97;;
8556;SDS011;4316;53.840;10.762;2022-10-13T02:56:47;7.47;;;2.70;;
8556;SDS011;4316;53.840;10.762;2022-10-13T02:59:12;10.40;;;2.50;;
8556;SDS011;4316;53.840;10.762;2022-10-13T03:01:38;8.00;;;2.77;;
8556;SDS011;4316;53.840;10.762;2022-10-13T03:04:09;8.13;;;3.00;;
8556;SDS011;4316;53.840;10.762;2022-10-13T03:06:35;6.33;;;2.80;;
8556;SDS011;4316;53.840;10.762;2022-10-13T03:09:02;7.03;;;2.70;;
8556;SDS011;4316;53.840;10.762;2022-10-13T03:11:28;5.97;;;2.57;;
8556;SDS011;4316;53.840;10.762;2022-10-13T03:13:55;10.87;;;2.70;;
8556;SDS011;4316;53.840;10.762;2022-10-13T03:16:20;10.17;;;3.43;;
8556;SDS011;4316;53.840;10.762;2022-10-13T03:18:46;11.23;;;3.10;;
8556;SDS011;4316;53.840;10.762;2022-10-13T03:21:12;7.40;;;2.90;;
8556;SDS011;4316;53.840;10.762;2022-10-13T03:23:38;10.53;;;2.60;;
8556;SDS011;4316;53.840;10.762;2022-10-13T03:26:04;10.83;;;3.57;;
8556;SDS011;4316;53.840;10.762;2022-10-13T03:28:30;10.63;;;2.97;;
8556;SDS011;4316;53.840;10.762;2022-10-13T03:31:09;5.27;;;2.47;;
8556;SDS011;4316;53.840;10.762;2022-10-13T03:33:36;9.13;;;2.77;;
8556;SDS011;4316;53.840;10.762;2022-10-13T03:36:03;6.67;;;2.60;;
8556;SDS011;4316;53.840;10.762;2022-10-13T03:38:30;8.50;;;3.00;;
8556;SDS011;4316;53.840;10.762;2022-10-13T03:40:56;10.50;;;2.93;;
8556;SDS011;4316;53.840;10.762;2022-10-13T03:43:23;10.50;;;3.10;;
8556;SDS011;4316;53.840;10.762;2022-10-13T03:45:56;8.47;;;2.97;;
8556;SDS011;4316;53.840;10.762;2022-10-13T03:48:22;8.27;;;2.80;;
8556;SDS011;4316;53.840;10.762;2022-10-13T03:50:49;8.37;;;2.73;;
8556;SDS011;4316;53.840;10.762;2022-10-13T03:53:15;10.73;;;2.53;;
8556;SDS011;4316;53.840;10.762;2022-10-13T03:55:41;17.00;;;2.90;;
8556;SDS011;4316;53.840;10.762;2022-10-13T03:58:12;12.70;;;2.63;;
8556;SDS011;4316;53.840;10.762;2022-10-13T04:00:41;8.83;;;3.10;;
8556;SDS011;4316;53.840;10.762;2022-10-13T04:03:06;4.17;;;2.23;;
8556;SDS011;4316;53.840;10.762;2022-10-13T04:05:35;7.57;;;2.63;;
8556;SDS011;4316;53.840;10.762;2022-10-13T04:08:01;13.90;;;2.90;;
8556;SDS011;4316;53.840;10.762;2022-10-13T04:10:26;6.00;;;2.43;;
8556;SDS011;4316;53.840;10.762;2022-10-13T04:12:52;11.57;;;2.67;;
8556;SDS011;4316;53.840;10.762;2022-10-13T04:15:18;7.30;;;2.23;;
8556;SDS011;4316;53.840;10.762;2022-10-13T04:17:44;8.20;;;3.03;;
8556;SDS011;4316;53.840;10.762;2022-10-13T04:20:09;10.83;;;3.20;;
8556;SDS011;4316;53.840;10.762;2022-10-13T04:22:35;6.83;;;2.73;;
8556;SDS011;4316;53.840;10.762;2022-10-13T04:25:01;8.07;;;3.07;;
8556;SDS011;4316;53.840;10.762;2022-10-13T04:27:28;6.27;;;3.23;;
8556;SDS011;4316;53.840;10.762;2022-10-13T04:29:54;13.30;;;3.23;;
8556;SDS011;4316;53.840;10.762;2022-10-13T04:32:20;13.07;;;3.67;;
8556;SDS011;4316;53.840;10.762;2022-10-13T04:34:46;8.13;;;4.03;;
8556;SDS011;4316;53.840;10.762;2022-10-13T04:37:12;8.97;;;3.77;;
8556;SDS011;4316;53.840;10.762;2022-10-13T04:39:37;7.07;;;3.47;;
8556;SDS011;4316;53.840;10.762;2022-10-13T04:42:03;12.73;;;3.53;;
8556;SDS011;4316;53.840;10.762;2022-10-13T04:44:29;8.40;;;3.87;;
8556;SDS011;4316;53.840;10.762;2022-10-13T04:46:55;8.03;;;3.40;;
8556;SDS011;4316;53.840;10.762;2022-10-13T04:49:21;9.67;;;3.83;;
8556;SDS011;4316;53.840;10.762;2022-10-13T04:51:48;16.80;;;3.80;;
8556;SDS011;4316;53.840;10.762;2022-10-13T04:54:13;14.47;;;3.63;;
8556;SDS011;4316;53.840;10.762;2022-10-13T04:56:39;8.67;;;3.20;;
8556;SDS011;4316;53.840;10.762;2022-10-13T04:59:07;7.57;;;3.03;;
8556;SDS011;4316;53.840;10.762;2022-10-13T05:01:33;8.30;;;3.73;;
8556;SDS011;4316;53.840;10.762;2022-10-13T05:04:00;12.63;;;3.03;;
8556;SDS011;4316;53.840;10.762;2022-10-13T05:06:33;10.67;;;3.93;;
8556;SDS011;4316;53.840;10.762;2022-10-13T05:09:01;10.33;;;3.77;;
8556;SDS011;4316;53.840;10.762;2022-10-13T05:11:28;8.73;;;3.60;;
8556;SDS011;4316;53.840;10.762;2022-10-13T05:13:54;6.60;;;3.70;;
8556;SDS011;4316;53.840;10.762;2022-10-13T05:16:21;10.10;;;3.43;;
8556;SDS011;4316;53.840;10.762;2022-10-13T05:18:48;5.33;;;3.43;;
8556;SDS011;4316;53.840;10.762;2022-10-13T05:21:19;10.87;;;3.83;;
8556;SDS011;4316;53.840;10.762;2022-10-13T05:23:46;8.37;;;3.93;;
8556;SDS011;4316;53.840;10.762;2022-10-13T05:26:13;11.10;;;3.93;;
8556;SDS011;4316;53.840;10.762;2022-10-13T05:28:41;6.80;;;3.67;;
8556;SDS011;4316;53.840;10.762;2022-10-13T05:31:12;6.60;;;3.13;;
8556;SDS011;4316;53.840;10.762;2022-10-13T05:33:43;7.47;;;3.60;;
8556;SDS011;4316;53.840;10.762;2022-10-13T05:36:10;7.97;;;3.00;;
8556;SDS011;4316;53.840;10.762;2022-10-13T05:38:38;9.60;;;3.30;;
8556;SDS011;4316;53.840;10.762;2022-10-13T05:41:05;8.40;;;3.33;;
8556;SDS011;4316;53.840;10.762;2022-10-13T05:43:32;8.40;;;3.40;;
8556;SDS011;4316;53.840;10.762;2022-10-13T05:45:59;6.57;;;3.43;;
8556;SDS011;4316;53.840;10.762;2022-10-13T05:48:27;12.87;;;3.90;;
8556;SDS011;4316;53.840;10.762;2022-10-13T05:50:53;9.47;;;3.67;;
8556;SDS011;4316;53.840;10.762;2022-10-13T05:53:22;6.20;;;3.37;;
8556;SDS011;4316;53.840;10.762;2022-10-13T05:55:51;8.57;;;3.63;;
8556;SDS011;4316;53.840;10.762;2022-10-13T05:58:18;15.33;;;4.47;;
8556;SDS011;4316;53.840;10.762;2022-10-13T06:00:45;7.73;;;3.60;;
8556;SDS011;4316;53.840;10.762;2022-10-13T06:03:15;10.00;;;4.13;;
8556;SDS011;4316;53.840;10.762;2022-10-13T06:05:45;13.40;;;4.03;;
8556;SDS011;4316;53.840;10.762;2022-10-13T06:08:14;7.90;;;3.77;;
8556;SDS011;4316;53.840;10.762;2022-10-13T06:10:41;7.87;;;4.03;;
8556;SDS011;4316;53.840;10.762;2022-10-13T06:13:08;7.37;;;3.80;;
8556;SDS011;4316;53.840;10.762;2022-10-13T06:15:34;8.43;;;4.33;;
8556;SDS011;4316;53.840;10.762;2022-10-13T06:18:00;9.50;;;3.77;;
8556;SDS011;4316;53.840;10.762;2022-10-13T06:20:26;7.77;;;3.27;;
8556;SDS011;4316;53.840;10.762;2022-10-13T06:22:55;10.07;;;4.30;;
8556;SDS011;4316;53.840;10.762;2022-10-13T06:25:21;6.73;;;3.50;;
8556;SDS011;4316;53.840;10.762;2022-10-13T06:27:46;7.37;;;4.10;;
8556;SDS011;4316;53.840;10.762;2022-10-13T06:30:13;7.20;;;3.67;;
8556;SDS011;4316;53.840;10.762;2022-10-13T06:32:39;12.03;;;5.53;;
8556;SDS011;4316;53.840;10.762;2022-10-13T06:35:05;8.30;;;4.13;;
8556;SDS011;4316;53.840;10.762;2022-10-13T06:37:31;13.10;;;4.00;;
8556;SDS011;4316;53.840;10.762;2022-10-13T06:39:57;11.63;;;4.03;;
8556;SDS011;4316;53.840;10.762;2022-10-13T06:42:22;9.43;;;4.07;;
8556;SDS011;4316;53.840;10.762;2022-10-13T06:45:06;13.03;;;5.07;;
8556;SDS011;4316;53.840;10.762;2022-10-13T06:47:32;13.27;;;4.80;;
8556;SDS011;4316;53.840;10.762;2022-10-13T06:49:58;9.50;;;4.73;;
8556;SDS011;4316;53.840;10.762;2022-10-13T06:52:24;12.07;;;4.23;;
8556;SDS011;4316;53.840;10.762;2022-10-13T06:54:50;9.20;;;4.53;;
8556;SDS011;4316;53.840;10.762;2022-10-13T06:57:16;17.93;;;5.17;;
8556;SDS011;4316;53.840;10.762;2022-10-13T06:59:41;15.50;;;4.53;;
8556;SDS011;4316;53.840;10.762;2022-10-13T07:02:08;9.97;;;4.87;;
8556;SDS011;4316;53.840;10.762;2022-10-13T07:04:35;7.87;;;4.40;;
8556;SDS011;4316;53.840;10.762;2022-10-13T07:07:00;8.57;;;5.10;;
8556;SDS011;4316;53.840;10.762;2022-10-13T07:09:26;10.03;;;4.40;;
8556;SDS011;4316;53.840;10.762;2022-10-13T07:11:52;13.63;;;5.07;;
8556;SDS011;4316;53.840;10.762;2022-10-13T07:14:18;18.07;;;5.30;;
8556;SDS011;4316;53.840;10.762;2022-10-13T07:16:44;11.80;;;4.80;;
8556;SDS011;4316;53.840;10.762;2022-10-13T07:19:11;10.57;;;4.40;;
8556;SDS011;4316;53.840;10.762;2022-10-13T07:21:39;10.77;;;4.50;;
8556;SDS011;4316;53.840;10.762;2022-10-13T07:24:05;9.40;;;4.43;;
8556;SDS011;4316;53.840;10.762;2022-10-13T07:26:32;14.13;;;4.83;;
8556;SDS011;4316;53.840;10.762;2022-10-13T07:28:59;7.03;;;4.63;;
8556;SDS011;4316;53.840;10.762;2022-10-13T07:31:25;17.67;;;5.03;;
8556;SDS011;4316;53.840;10.762;2022-10-13T07:33:51;12.50;;;5.37;;
8556;SDS011;4316;53.840;10.762;2022-10-13T07:36:17;10.50;;;3.93;;
8556;SDS011;4316;53.840;10.762;2022-10-13T07:38:45;11.07;;;5.07;;
8556;SDS011;4316;53.840;10.762;2022-10-13T07:41:11;10.43;;;4.40;;
8556;SDS011;4316;53.840;10.762;2022-10-13T07:43:37;10.47;;;4.93;;
8556;SDS011;4316;53.840;10.762;2022-10-13T07:46:05;11.70;;;4.77;;
8556;SDS011;4316;53.840;10.762;2022-10-13T07:48:33;12.20;;;4.73;;
8556;SDS011;4316;53.840;10.762;2022-10-13T07:51:07;9.50;;;5.10;;
8556;SDS011;4316;53.840;10.762;2022-10-13T07:53:35;18.43;;;5.33;;
8556;SDS011;4316;53.840;10.762;2022-10-13T07:56:02;10.50;;;4.63;;
8556;SDS011;4316;53.840;10.762;2022-10-13T07:58:30;17.57;;;4.87;;
8556;SDS011;4316;53.840;10.762;2022-10-13T08:00:56;7.87;;;5.10;;
8556;SDS011;4316;53.840;10.762;2022-10-13T08:03:24;9.80;;;4.63;;
8556;SDS011;4316;53.840;10.762;2022-10-13T08:05:50;18.77;;;5.13;;
8556;SDS011;4316;53.840;10.762;2022-10-13T08:08:17;10.43;;;4.70;;
8556;SDS011;4316;53.840;10.762;2022-10-13T08:10:42;13.00;;;5.83;;
8556;SDS011;4316;53.840;10.762;2022-10-13T08:13:11;13.10;;;5.00;;
8556;SDS011;4316;53.840;10.762;2022-10-13T08:15:41;9.67;;;5.20;;
8556;SDS011;4316;53.840;10.762;2022-10-13T08:18:08;8.07;;;4.40;;
8556;SDS011;4316;53.840;10.762;2022-10-13T08:20:42;9.10;;;5.17;;
8556;SDS011;4316;53.840;10.762;2022-10-13T08:23:09;17.33;;;5.40;;
8556;SDS011;4316;53.840;10.762;2022-10-13T08:25:41;18.70;;;5.40;;
8556;SDS011;4316;53.840;10.762;2022-10-13T08:28:21;12.20;;;5.33;;
8556;SDS011;4316;53.840;10.762;2022-10-13T08:30:50;32.27;;;6.13;;
8556;SDS011;4316;53.840;10.762;2022-10-13T08:33:17;14.53;;;5.10;;
8556;SDS011;4316;53.840;10.762;2022-10-13T08:35:44;11.63;;;5.10;;
8556;SDS011;4316;53.840;10.762;2022-10-13T08:38:10;8.30;;;5.30;;
8556;SDS011;4316;53.840;10.762;2022-10-13T08:40:37;10.93;;;5.53;;
8556;SDS011;4316;53.840;10.762;2022-10-13T08:43:07;11.77;;;5.57;;
8556;SDS011;4316;53.840;10.762;2022-10-13T08:45:34;14.87;;;5.57;;
8556;SDS011;4316;53.840;10.762;2022-10-13T08:48:09;20.73;;;5.90;;
8556;SDS011;4316;53.840;10.762;2022-10-13T08:50:42;18.20;;;6.97;;
8556;SDS011;4316;53.840;10.762;2022-10-13T08:53:11;10.80;;;5.77;;
8556;SDS011;4316;53.840;10.762;2022-10-13T08:55:48;13.53;;;5.40;;
8556;SDS011;4316;53.840;10.762;2022-10-13T08:58:23;14.50;;;6.00;;
8556;SDS011;4316;53.840;10.762;2022-10-13T09:00:56;12.43;;;5.53;;
8556;SDS011;4316;53.840;10.762;2022-10-13T09:03:30;16.10;;;6.40;;
8556;SDS011;4316;53.840;10.762;2022-10-13T09:06:09;13.47;;;6.03;;
8556;SDS011;4316;53.840;10.762;2022-10-13T09:08:53;11.13;;;6.20;;
8556;SDS011;4316;53.840;10.762;2022-10-13T09:11:21;18.03;;;6.50;;
8556;SDS011;4316;53.840;10.762;2022-10-13T09:13:52;12.60;;;6.00;;
8556;SDS011;4316;53.840;10.762;2022-10-13T09:16:25;16.13;;;5.93;;
8556;SDS011;4316;53.840;10.762;2022-10-13T09:19:11;15.43;;;6.33;;
8556;SDS011;4316;53.840;10.762;2022-10-13T09:21:54;25.13;;;6.57;;
8556;SDS011;4316;53.840;10.762;2022-10-13T09:24:21;19.67;;;6.20;;
8556;SDS011;4316;53.840;10.762;2022-10-13T09:26:49;10.37;;;5.47;;
8556;SDS011;4316;53.840;10.762;2022-10-13T09:29:29;14.03;;;5.87;;
8556;SDS011;4316;53.840;10.762;2022-10-13T09:34:47;15.80;;;6.13;;
8556;SDS011;4316;53.840;10.762;2022-10-13T09:39:51;13.00;;;5.97;;
8556;SDS011;4316;53.840;10.762;2022-10-13T09:42:36;23.20;;;6.07;;
8556;SDS011;4316;53.840;10.762;2022-10-13T09:45:15;14.33;;;6.30;;
8556;SDS011;4316;53.840;10.762;2022-10-13T09:47:53;13.87;;;6.77;;
8556;SDS011;4316;53.840;10.762;2022-10-13T09:50:26;12.90;;;6.50;;
8556;SDS011;4316;53.840;10.762;2022-10-13T09:53:08;17.97;;;6.57;;
8556;SDS011;4316;53.840;10.762;2022-10-13T09:56:05;14.50;;;6.43;;
8556;SDS011;4316;53.840;10.762;2022-10-13T09:58:33;13.37;;;6.47;;
8556;SDS011;4316;53.840;10.762;2022-10-13T10:01:04;21.23;;;7.07;;
8556;SDS011;4316;53.840;10.762;2022-10-13T10:03:31;17.13;;;7.87;;
8556;SDS011;4316;53.840;10.762;2022-10-13T10:06:05;11.70;;;6.90;;
8556;SDS011;4316;53.840;10.762;2022-10-13T10:13:58;16.53;;;6.67;;
8556;SDS011;4316;53.840;10.762;2022-10-13T10:16:38;15.73;;;7.13;;
8556;SDS011;4316;53.840;10.762;2022-10-13T10:27:07;20.93;;;8.17;;
8556;SDS011;4316;53.840;10.762;2022-10-13T10:35:03;17.90;;;8.00;;
8556;SDS011;4316;53.840;10.762;2022-10-13T10:45:44;13.60;;;7.57;;
8556;SDS011;4316;53.840;10.762;2022-10-13T10:48:45;17.67;;;8.80;;
8556;SDS011;4316;53.840;10.762;2022-10-13T10:51:05;18.63;;;8.87;;
8556;SDS011;4316;53.840;10.762;2022-10-13T10:53:37;17.97;;;8.23;;
8556;SDS011;4316;53.840;10.762;2022-10-13T10:56:44;20.10;;;7.40;;
8556;SDS011;4316;53.840;10.762;2022-10-13T11:05:06;15.43;;;8.10;;
8556;SDS011;4316;53.840;10.762;2022-10-13T11:12:24;17.43;;;9.00;;
8556;SDS011;4316;53.840;10.762;2022-10-13T11:17:31;15.37;;;8.17;;
8556;SDS011;4316;53.840;10.762;2022-10-13T11:20:01;23.60;;;7.47;;
8556;SDS011;4316;53.840;10.762;2022-10-13T11:27:59;18.57;;;7.37;;
8556;SDS011;4316;53.840;10.762;2022-10-13T11:30:42;14.30;;;7.40;;
8556;SDS011;4316;53.840;10.762;2022-10-13T11:33:33;14.17;;;7.67;;
8556;SDS011;4316;53.840;10.762;2022-10-13T11:41:43;13.60;;;6.70;;
8556;SDS011;4316;53.840;10.762;2022-10-13T11:52:47;19.07;;;6.83;;
8556;SDS011;4316;53.840;10.762;2022-10-13T11:55:18;12.07;;;6.87;;
8556;SDS011;4316;53.840;10.762;2022-10-13T11:58:14;13.03;;;7.07;;
8556;SDS011;4316;53.840;10.762;2022-10-13T12:03:28;20.60;;;7.03;;
8556;SDS011;4316;53.840;10.762;2022-10-13T12:05:57;15.90;;;7.30;;
8556;SDS011;4316;53.840;10.762;2022-10-13T12:08:26;16.33;;;7.47;;
8556;SDS011;4316;53.840;10.762;2022-10-13T12:10:53;16.07;;;6.87;;
8556;SDS011;4316;53.840;10.762;2022-10-13T12:13:25;18.03;;;7.33;;
8556;SDS011;4316;53.840;10.762;2022-10-13T12:16:01;19.47;;;6.97;;
8556;SDS011;4316;53.840;10.762;2022-10-13T12:18:32;19.50;;;7.50;;
8556;SDS011;4316;53.840;10.762;2022-10-13T12:21:16;14.20;;;6.77;;
8556;SDS011;4316;53.840;10.762;2022-10-13T12:23:45;12.20;;;6.67;;
8556;SDS011;4316;53.840;10.762;2022-10-13T12:26:14;16.77;;;7.23;;
8556;SDS011;4316;53.840;10.762;2022-10-13T12:31:20;16.65;;;6.78;;
8556;SDS011;4316;53.840;10.762;2022-10-13T12:33:59;16.00;;;6.00;;
8556;SDS011;4316;53.840;10.762;2022-10-13T12:36:33;15.70;;;6.20;;
8556;SDS011;4316;53.840;10.762;2022-10-13T12:39:01;12.50;;;5.93;;
8556;SDS011;4316;53.840;10.762;2022-10-13T12:41:31;15.37;;;5.50;;
8556;SDS011;4316;53.840;10.762;2022-10-13T12:43:58;10.48;;;5.63;;
8556;SDS011;4316;53.840;10.762;2022-10-13T12:46:44;12.43;;;6.13;;
8556;SDS011;4316;53.840;10.762;2022-10-13T12:49:15;9.83;;;5.60;;
8556;SDS011;4316;53.840;10.762;2022-10-13T12:51:56;11.87;;;5.87;;
8556;SDS011;4316;53.840;10.762;2022-10-13T12:54:30;10.50;;;5.53;;
8556;SDS011;4316;53.840;10.762;2022-10-13T12:56:59;16.05;;;7.70;;
8556;SDS011;4316;53.840;10.762;2022-10-13T12:59:30;18.58;;;6.68;;
8556;SDS011;4316;53.840;10.762;2022-10-13T13:01:59;9.63;;;6.07;;
8556;SDS011;4316;53.840;10.762;2022-10-13T13:04:28;16.73;;;5.93;;
8556;SDS011;4316;53.840;10.762;2022-10-13T13:07:03;13.67;;;5.97;;
8556;SDS011;4316;53.840;10.762;2022-10-13T13:09:58;18.08;;;7.68;;
8556;SDS011;4316;53.840;10.762;2022-10-13T13:12:45;17.10;;;5.80;;
8556;SDS011;4316;53.840;10.762;2022-10-13T13:17:45;11.47;;;5.90;;
8556;SDS011;4316;53.840;10.762;2022-10-13T13:20:45;13.60;;;5.70;;
8556;SDS011;4316;53.840;10.762;2022-10-13T13:23:03;16.30;;;5.90;;
8556;SDS011;4316;53.840;10.762;2022-10-13T13:25:29;10.33;;;5.50;;
8556;SDS011;4316;53.840;10.762;2022-10-13T13:27:55;18.83;;;6.10;;
8556;SDS011;4316;53.840;10.762;2022-10-13T13:30:21;10.13;;;5.43;;
8556;SDS011;4316;53.840;10.762;2022-10-13T13:32:48;16.93;;;5.87;;
8556;SDS011;4316;53.840;10.762;2022-10-13T13:35:14;14.57;;;5.90;;
8556;SDS011;4316;53.840;10.762;2022-10-13T13:37:44;10.10;;;5.57;;
8556;SDS011;4316;53.840;10.762;2022-10-13T13:40:15;8.87;;;5.20;;
8556;SDS011;4316;53.840;10.762;2022-10-13T13:42:42;13.47;;;5.53;;
8556;SDS011;4316;53.840;10.762;2022-10-13T13:45:11;8.17;;;5.03;;
8556;SDS011;4316;53.840;10.762;2022-10-13T13:47:37;12.37;;;5.37;;
8556;SDS011;4316;53.840;10.762;2022-10-13T13:50:05;14.27;;;5.70;;
8556;SDS011;4316;53.840;10.762;2022-10-13T13:52:45;13.73;;;4.83;;
8556;SDS011;4316;53.840;10.762;2022-10-13T13:55:12;12.57;;;5.97;;
8556;SDS011;4316;53.840;10.762;2022-10-13T13:57:41;14.70;;;5.73;;
8556;SDS011;4316;53.840;10.762;2022-10-13T14:00:09;17.20;;;5.77;;
8556;SDS011;4316;53.840;10.762;2022-10-13T14:02:37;13.23;;;5.53;;
8556;SDS011;4316;53.840;10.762;2022-10-13T14:05:02;15.43;;;7.57;;
8556;SDS011;4316;53.840;10.762;2022-10-13T14:07:29;19.63;;;7.63;;
8556;SDS011;4316;53.840;10.762;2022-10-13T14:09:56;13.47;;;6.27;;
8556;SDS011;4316;53.840;10.762;2022-10-13T14:12:22;14.70;;;6.07;;
8556;SDS011;4316;53.840;10.762;2022-10-13T14:14:48;9.30;;;5.40;;
8556;SDS011;4316;53.840;10.762;2022-10-13T14:17:16;18.47;;;5.10;;
8556;SDS011;4316;53.840;10.762;2022-10-13T14:19:42;12.00;;;4.90;;
8556;SDS011;4316;53.840;10.762;2022-10-13T14:22:08;12.68;;;4.93;;
8556;SDS011;4316;53.840;10.762;2022-10-13T14:24:33;14.53;;;6.47;;
8556;SDS011;4316;53.840;10.762;2022-10-13T14:27:00;10.82;;;4.85;;
8556;SDS011;4316;53.840;10.762;2022-10-13T14:29:26;8.55;;;5.15;;
8556;SDS011;4316;53.840;10.762;2022-10-13T14:31:51;6.75;;;4.53;;
8556;SDS011;4316;53.840;10.762;2022-10-13T14:34:17;11.98;;;5.10;;
8556;SDS011;4316;53.840;10.762;2022-10-13T14:36:45;9.23;;;5.22;;
8556;SDS011;4316;53.840;10.762;2022-10-13T14:39:11;7.77;;;4.73;;
8556;SDS011;4316;53.840;10.762;2022-10-13T14:41:37;13.05;;;4.75;;
8556;SDS011;4316;53.840;10.762;2022-10-13T14:44:03;15.83;;;6.03;;
8556;SDS011;4316;53.840;10.762;2022-10-13T14:46:29;12.67;;;5.13;;
8556;SDS011;4316;53.840;10.762;2022-10-13T14:48:54;11.87;;;5.17;;
8556;SDS011;4316;53.840;10.762;2022-10-13T14:51:23;9.27;;;5.20;;
8556;SDS011;4316;53.840;10.762;2022-10-13T14:53:49;12.63;;;5.40;;
8556;SDS011;4316;53.840;10.762;2022-10-13T14:56:22;16.48;;;5.35;;
8556;SDS011;4316;53.840;10.762;2022-10-13T14:58:52;8.30;;;4.53;;
8556;SDS011;4316;53.840;10.762;2022-10-13T15:01:22;15.27;;;4.67;;
8556;SDS011;4316;53.840;10.762;2022-10-13T15:03:48;8.38;;;4.15;;
8556;SDS011;4316;53.840;10.762;2022-10-13T15:06:16;7.60;;;3.88;;
8556;SDS011;4316;53.840;10.762;2022-10-13T15:08:44;8.83;;;4.57;;
8556;SDS011;4316;53.840;10.762;2022-10-13T15:11:10;8.30;;;4.67;;
8556;SDS011;4316;53.840;10.762;2022-10-13T15:13:36;8.37;;;4.77;;
8556;SDS011;4316;53.840;10.762;2022-10-13T15:16:03;9.10;;;4.83;;
8556;SDS011;4316;53.840;10.762;2022-10-13T15:18:30;8.57;;;4.60;;
8556;SDS011;4316;53.840;10.762;2022-10-13T15:20:56;10.77;;;4.83;;
8556;SDS011;4316;53.840;10.762;2022-10-13T15:23:26;10.20;;;5.03;;
8556;SDS011;4316;53.840;10.762;2022-10-13T15:25:52;9.70;;;5.30;;
8556;SDS011;4316;53.840;10.762;2022-10-13T15:28:21;14.00;;;4.97;;
8556;SDS011;4316;53.840;10.762;2022-10-13T15:30:47;10.40;;;4.90;;
8556;SDS011;4316;53.840;10.762;2022-10-13T15:33:15;11.43;;;4.37;;
8556;SDS011;4316;53.840;10.762;2022-10-13T15:35:41;10.93;;;4.90;;
8556;SDS011;4316;53.840;10.762;2022-10-13T15:38:10;6.95;;;4.40;;
8556;SDS011;4316;53.840;10.762;2022-10-13T15:40:39;11.25;;;4.53;;
8556;SDS011;4316;53.840;10.762;2022-10-13T15:43:07;24.17;;;14.00;;
8556;SDS011;4316;53.840;10.762;2022-10-13T15:45:33;15.63;;;9.90;;
8556;SDS011;4316;53.840;10.762;2022-10-13T15:47:59;10.60;;;5.78;;
8556;SDS011;4316;53.840;10.762;2022-10-13T15:50:24;9.70;;;4.72;;
8556;SDS011;4316;53.840;10.762;2022-10-13T15:52:50;11.43;;;5.18;;
8556;SDS011;4316;53.840;10.762;2022-10-13T15:55:16;9.02;;;4.55;;
8556;SDS011;4316;53.840;10.762;2022-10-13T15:57:43;9.90;;;4.45;;
8556;SDS011;4316;53.840;10.762;2022-10-13T16:00:10;14.20;;;4.95;;
8556;SDS011;4316;53.840;10.762;2022-10-13T16:02:40;9.75;;;4.22;;
8556;SDS011;4316;53.840;10.762;2022-10-13T16:05:07;10.48;;;5.13;;
8556;SDS011;4316;53.840;10.762;2022-10-13T16:07:34;9.95;;;4.80;;
8556;SDS011;4316;53.840;10.762;2022-10-13T16:10:00;13.75;;;4.75;;
8556;SDS011;4316;53.840;10.762;2022-10-13T16:12:26;6.20;;;4.40;;
8556;SDS011;4316;53.840;10.762;2022-10-13T16:14:53;10.32;;;4.43;;
8556;SDS011;4316;53.840;10.762;2022-10-13T16:17:19;11.75;;;4.25;;
8556;SDS011;4316;53.840;10.762;2022-10-13T16:19:48;8.53;;;4.70;;
8556;SDS011;4316;53.840;10.762;2022-10-13T16:22:14;7.20;;;3.77;;
8556;SDS011;4316;53.840;10.762;2022-10-13T16:24:40;10.25;;;4.07;;
8556;SDS011;4316;53.840;10.762;2022-10-13T16:27:06;11.32;;;4.47;;
8556;SDS011;4316;53.840;10.762;2022-10-13T16:29:32;9.45;;;4.32;;
8556;SDS011;4316;53.840;10.762;2022-10-13T16:31:58;9.85;;;5.18;;
8556;SDS011;4316;53.840;10.762;2022-10-13T16:34:26;14.40;;;5.32;;
8556;SDS011;4316;53.840;10.762;2022-10-13T16:36:52;13.82;;;6.90;;
8556;SDS011;4316;53.840;10.762;2022-10-13T16:39:18;14.52;;;6.28;;
8556;SDS011;4316;53.840;10.762;2022-10-13T16:41:44;14.02;;;7.80;;
8556;SDS011;4316;53.840;10.762;2022-10-13T16:44:16;27.70;;;7.22;;
8556;SDS011;4316;53.840;10.762;2022-10-13T16:46:42;16.00;;;8.75;;
8556;SDS011;4316;53.840;10.762;2022-10-13T16:49:08;22.35;;;8.80;;
8556;SDS011;4316;53.840;10.762;2022-10-13T16:51:35;13.10;;;7.28;;